createdAt,value
2023-04-17T00:02:01.759Z,22.38
2023-04-17T00:04:30.942Z,21.10
2023-04-17T00:07:05.788Z,26.10
2023-04-17T00:09:34.365Z,25.63
2023-04-17T00:12:02.962Z,24.85
2023-04-17T00:14:32.756Z,23.52
2023-04-17T00:17:01.065Z,21.25
2023-04-17T00:19:29.355Z,19.63
2023-04-17T00:21:57.785Z,28.98
2023-04-17T00:24:26.072Z,21.25
2023-04-17T00:26:54.453Z,25.65
2023-04-17T00:29:22.896Z,21.55
2023-04-17T00:31:52.744Z,29.30
2023-04-17T00:34:21.053Z,24.38
2023-04-17T00:36:49.424Z,27.42
2023-04-17T00:39:17.756Z,27.83
2023-04-17T00:41:46.055Z,28.88
2023-04-17T00:44:14.430Z,31.33
2023-04-17T00:46:42.897Z,29.27
2023-04-17T00:49:13.370Z,28.55
2023-04-17T00:51:41.989Z,28.40
2023-04-17T00:54:12.635Z,26.05
2023-04-17T00:56:42.445Z,28.02
2023-04-17T00:59:14.008Z,28.35
2023-04-17T01:01:42.795Z,29.08
2023-04-17T01:04:12.770Z,29.42
2023-04-17T01:06:41.969Z,29.98
2023-04-17T01:09:10.937Z,35.55
2023-04-17T01:11:39.581Z,32.42
2023-04-17T01:14:07.887Z,40.05
2023-04-17T01:16:40.278Z,39.17
2023-04-17T01:19:10.791Z,37.42
2023-04-17T01:21:41.247Z,39.28
2023-04-17T01:24:11.223Z,39.72
2023-04-17T01:26:42.127Z,33.60
2023-04-17T01:29:10.968Z,36.58
2023-04-17T01:31:39.726Z,39.17
2023-04-17T01:34:08.329Z,40.78
2023-04-17T01:36:37.001Z,39.55
2023-04-17T01:39:05.729Z,38.38
2023-04-17T01:41:36.706Z,42.67
2023-04-17T01:44:05.508Z,39.92
2023-04-17T01:46:34.179Z,38.80
2023-04-17T01:49:05.071Z,40.78
2023-04-17T01:51:33.632Z,38.60
2023-04-17T01:54:02.369Z,36.63
2023-04-17T01:56:31.037Z,38.55
2023-04-17T01:59:00.953Z,35.05
2023-04-17T02:01:29.685Z,35.30
2023-04-17T02:04:01.864Z,38.65
2023-04-17T02:06:32.061Z,41.47
2023-04-17T02:09:00.657Z,35.95
2023-04-17T02:11:29.478Z,40.92
2023-04-17T02:13:58.008Z,41.38
2023-04-17T02:16:28.855Z,41.60
2023-04-17T02:18:57.521Z,41.70
2023-04-17T02:21:26.944Z,46.22
2023-04-17T02:23:55.520Z,37.70
2023-04-17T02:26:24.175Z,43.33
2023-04-17T02:28:52.820Z,40.47
2023-04-17T02:31:21.428Z,48.42
2023-04-17T02:33:51.473Z,44.95
2023-04-17T02:36:19.989Z,48.83
2023-04-17T02:38:48.616Z,43.45
2023-04-17T02:41:17.283Z,45.25
2023-04-17T02:43:46.451Z,44.15
2023-04-17T02:46:15.066Z,46.70
2023-04-17T02:48:43.729Z,48.95
2023-04-17T02:51:13.827Z,51.83
2023-04-17T02:53:42.442Z,50.22
2023-04-17T02:56:11.197Z,55.75
2023-04-17T02:58:39.802Z,53.55
2023-04-17T03:01:08.508Z,50.05
2023-04-17T03:03:42.690Z,46.85
2023-04-17T03:06:11.570Z,51.47
2023-04-17T03:08:43.712Z,49.58
2023-04-17T03:11:12.266Z,46.92
2023-04-17T03:13:40.844Z,43.15
2023-04-17T03:16:09.593Z,40.30
2023-04-17T03:18:41.146Z,47.42
2023-04-17T03:21:09.925Z,41.88
2023-04-17T03:23:38.631Z,44.95
2023-04-17T03:26:08.724Z,47.15
2023-04-17T03:28:37.563Z,49.80
2023-04-17T03:31:06.572Z,43.92
2023-04-17T03:33:35.234Z,51.42
2023-04-17T03:36:04.032Z,49.83
2023-04-17T03:38:32.609Z,50.17
2023-04-17T03:41:01.290Z,50.50
2023-04-17T03:43:31.427Z,47.70
2023-04-17T03:46:00.176Z,54.10
2023-04-17T03:48:28.893Z,53.63
2023-04-17T03:50:57.534Z,57.50
2023-04-17T03:53:26.187Z,55.78
2023-04-17T03:55:57.916Z,50.72
2023-04-17T03:58:26.627Z,61.60
2023-04-17T04:00:58.986Z,53.42
2023-04-17T04:03:27.937Z,59.42
2023-04-17T04:05:56.814Z,55.72
2023-04-17T04:08:25.537Z,56.42
2023-04-17T04:10:54.110Z,59.67
2023-04-17T04:13:22.715Z,57.38
2023-04-17T04:15:51.441Z,55.22
2023-04-17T04:18:21.429Z,50.83
2023-04-17T04:20:50.460Z,55.22
2023-04-17T04:23:21.053Z,53.00
2023-04-17T04:25:50.645Z,58.80
2023-04-17T04:28:19.388Z,50.70
2023-04-17T04:30:50.629Z,55.85
2023-04-17T04:33:21.189Z,56.15
2023-04-17T04:35:51.419Z,57.72
2023-04-17T04:38:20.108Z,54.13
2023-04-17T04:40:50.170Z,53.75
2023-04-17T04:43:21.647Z,52.55
2023-04-17T04:45:50.942Z,62.33
2023-04-17T04:48:21.050Z,58.63
2023-04-17T04:50:49.641Z,58.45
2023-04-17T04:53:18.274Z,57.45
2023-04-17T04:55:46.959Z,61.45
2023-04-17T04:58:15.518Z,64.05
2023-04-17T05:00:44.326Z,69.70
2023-04-17T05:03:13.337Z,79.13
2023-04-17T05:05:44.453Z,70.43
2023-04-17T05:08:13.956Z,61.22
2023-04-17T05:10:42.636Z,63.50
2023-04-17T05:13:13.501Z,68.40
2023-04-17T05:15:42.506Z,71.63
2023-04-17T05:18:11.164Z,69.82
2023-04-17T05:20:39.783Z,71.85
2023-04-17T05:23:09.763Z,73.85
2023-04-17T05:25:38.314Z,73.13
2023-04-17T05:28:07.292Z,75.18
2023-04-17T05:30:36.189Z,79.95
2023-04-17T05:33:04.793Z,82.50
2023-04-17T05:35:33.481Z,82.38
2023-04-17T05:38:02.042Z,81.47
2023-04-17T05:40:31.975Z,76.60
2023-04-17T05:43:07.224Z,84.32
2023-04-17T05:45:35.824Z,77.85
2023-04-17T05:48:04.787Z,73.35
2023-04-17T05:50:33.451Z,76.75
2023-04-17T05:53:02.306Z,73.22
2023-04-17T05:55:32.368Z,69.68
2023-04-17T05:58:10.476Z,66.68
2023-04-17T06:00:45.390Z,61.88
2023-04-17T06:03:18.271Z,60.75
2023-04-17T06:05:50.570Z,66.38
2023-04-17T06:08:19.371Z,59.13
2023-04-17T06:10:50.233Z,62.67
2023-04-17T06:13:18.816Z,64.53
2023-04-17T06:15:47.431Z,65.90
2023-04-17T06:18:17.689Z,60.90
2023-04-17T06:20:46.620Z,65.05
2023-04-17T06:23:15.526Z,61.70
2023-04-17T06:25:44.449Z,65.18
2023-04-17T06:28:14.356Z,59.60
2023-04-17T06:30:43.070Z,59.95
2023-04-17T06:33:11.646Z,56.53
2023-04-17T06:35:40.926Z,59.47
2023-04-17T06:38:09.946Z,38.38
2023-04-17T06:40:38.546Z,58.60
2023-04-17T06:43:07.129Z,47.75
2023-04-17T06:45:42.350Z,53.72
2023-04-17T06:48:10.979Z,60.67
2023-04-17T06:50:39.602Z,70.47
2023-04-17T06:53:08.290Z,57.05
2023-04-17T06:55:39.859Z,57.75
2023-04-17T06:58:09.473Z,49.65
2023-04-17T07:00:39.375Z,48.10
2023-04-17T07:03:08.236Z,49.65
2023-04-17T07:05:36.932Z,51.35
2023-04-17T07:08:05.641Z,48.03
2023-04-17T07:10:34.255Z,49.33
2023-04-17T07:13:03.521Z,50.67
2023-04-17T07:15:32.209Z,40.97
2023-04-17T07:18:02.183Z,41.92
2023-04-17T07:20:30.966Z,34.45
2023-04-17T07:22:59.531Z,37.20
2023-04-17T07:25:28.160Z,40.63
2023-04-17T07:27:56.989Z,34.97
2023-04-17T07:30:25.795Z,35.05
2023-04-17T07:32:54.561Z,39.65
2023-04-17T07:35:24.776Z,40.88
2023-04-17T07:37:53.621Z,41.58
2023-04-17T07:40:22.326Z,43.83
2023-04-17T07:42:50.969Z,41.25
2023-04-17T07:45:20.000Z,43.40
2023-04-17T07:47:48.729Z,29.88
2023-04-17T07:50:17.364Z,38.65
2023-04-17T07:52:47.383Z,37.25
2023-04-17T07:55:16.810Z,37.95
2023-04-17T07:57:46.604Z,35.78
2023-04-17T08:00:15.632Z,39.25
2023-04-17T08:02:44.535Z,38.70
2023-04-17T08:05:13.280Z,37.83
2023-04-17T08:07:42.644Z,37.35
2023-04-17T08:10:12.932Z,43.10
2023-04-17T08:12:41.692Z,37.90
2023-04-17T08:15:10.759Z,37.83
2023-04-17T08:17:39.452Z,45.90
2023-04-17T08:20:11.352Z,40.00
2023-04-17T08:22:42.972Z,43.00
2023-04-17T08:25:13.837Z,49.08
2023-04-17T08:27:43.064Z,41.55
2023-04-17T08:30:15.071Z,35.65
2023-04-17T08:32:47.037Z,26.30
2023-04-17T08:35:17.322Z,27.45
2023-04-17T08:37:47.623Z,28.90
2023-04-17T08:40:18.885Z,27.33
2023-04-17T08:42:49.567Z,24.20
2023-04-17T08:45:19.991Z,26.10
2023-04-17T08:47:48.717Z,26.42
2023-04-17T08:50:18.147Z,26.98
2023-04-17T08:52:49.007Z,27.48
2023-04-17T08:55:19.670Z,28.83
2023-04-17T08:58:03.853Z,26.63
2023-04-17T09:00:33.361Z,27.55
2023-04-17T09:03:04.001Z,27.95
2023-04-17T09:05:34.271Z,27.77
2023-04-17T09:08:11.394Z,31.73
2023-04-17T09:10:42.165Z,30.48
2023-04-17T09:13:12.405Z,34.17
2023-04-17T09:15:40.996Z,29.17
2023-04-17T09:18:23.200Z,25.80
2023-04-17T09:20:52.357Z,28.67
2023-04-17T09:23:21.503Z,30.38
2023-04-17T09:26:06.791Z,31.55
2023-04-17T09:28:36.992Z,29.40
2023-04-17T09:31:06.617Z,33.75
2023-04-17T09:33:38.071Z,30.80
2023-04-17T09:36:22.616Z,27.92
2023-04-17T09:38:51.648Z,29.33
2023-04-17T09:41:29.058Z,25.90
2023-04-17T09:44:01.080Z,26.77
2023-04-17T09:46:34.014Z,26.83
2023-04-17T09:49:06.958Z,29.92
2023-04-17T09:51:36.450Z,30.92
2023-04-17T09:54:07.037Z,28.40
2023-04-17T09:56:38.020Z,26.85
2023-04-17T09:59:07.623Z,28.15
2023-04-17T10:01:37.051Z,34.70
2023-04-17T10:04:09.921Z,26.35
2023-04-17T10:06:39.102Z,28.50
2023-04-17T10:09:08.139Z,29.70
2023-04-17T10:11:39.334Z,30.95
2023-04-17T10:14:12.360Z,32.83
2023-04-17T10:16:42.729Z,28.90
2023-04-17T10:19:29.629Z,33.75
2023-04-17T10:22:13.052Z,31.80
2023-04-17T10:24:41.819Z,26.20
2023-04-17T10:27:25.696Z,33.42
2023-04-17T10:29:58.476Z,29.02
2023-04-17T10:32:28.735Z,33.13
2023-04-17T10:34:58.505Z,32.50
2023-04-17T10:37:42.197Z,30.27
2023-04-17T10:40:14.110Z,31.95
2023-04-17T10:42:43.056Z,30.48
2023-04-17T10:45:21.350Z,34.03
2023-04-17T10:48:00.112Z,29.65
2023-04-17T10:50:29.882Z,34.03
2023-04-17T10:52:58.556Z,29.98
2023-04-17T10:55:28.478Z,30.75
2023-04-17T10:58:01.336Z,30.55
2023-04-17T11:00:34.115Z,27.92
2023-04-17T11:03:03.341Z,31.80
2023-04-17T11:05:32.437Z,32.13
2023-04-17T11:08:01.254Z,29.27
2023-04-17T11:10:29.961Z,34.55
2023-04-17T11:12:58.663Z,27.30
2023-04-17T11:15:28.234Z,28.25
2023-04-17T11:17:58.366Z,30.73
2023-04-17T11:20:28.297Z,32.92
2023-04-17T11:22:58.094Z,27.90
2023-04-17T11:25:27.575Z,29.42
2023-04-17T11:27:59.583Z,26.45
2023-04-17T11:30:32.459Z,28.02
2023-04-17T11:33:03.033Z,18.05
2023-04-17T11:35:32.601Z,21.05
2023-04-17T11:38:12.597Z,27.88
2023-04-17T11:40:47.997Z,25.30
2023-04-17T11:43:19.288Z,26.75
2023-04-17T11:45:48.790Z,25.77
2023-04-17T11:48:22.818Z,25.48
2023-04-17T11:50:54.967Z,24.08
2023-04-17T11:53:23.578Z,24.77
2023-04-17T11:56:13.118Z,22.25
2023-04-17T11:58:51.841Z,21.73
2023-04-17T12:01:21.366Z,25.02
2023-04-17T12:03:54.245Z,26.95
2023-04-17T12:06:26.121Z,23.90
2023-04-17T12:08:56.241Z,24.73
2023-04-17T12:11:26.629Z,23.17
2023-04-17T12:13:55.755Z,20.88
2023-04-17T12:16:25.837Z,21.67
2023-04-17T12:18:55.945Z,20.13
2023-04-17T12:21:24.895Z,24.33
2023-04-17T12:23:53.411Z,25.27
2023-04-17T12:26:21.985Z,18.98
2023-04-17T12:28:50.908Z,24.15
2023-04-17T12:31:19.258Z,20.52
2023-04-17T12:33:47.896Z,21.65
2023-04-17T12:36:17.636Z,23.42
2023-04-17T12:38:46.509Z,20.50
2023-04-17T12:41:14.811Z,23.23
2023-04-17T12:43:43.125Z,17.52
2023-04-17T12:46:11.937Z,23.25
2023-04-17T12:48:40.352Z,20.90
2023-04-17T12:51:08.751Z,22.50
2023-04-17T12:53:38.520Z,21.95
2023-04-17T12:56:07.991Z,24.20
2023-04-17T12:58:36.294Z,23.27
2023-04-17T13:01:04.727Z,24.52
2023-04-17T13:03:33.242Z,21.55
2023-04-17T13:06:01.675Z,21.25
2023-04-17T13:08:31.093Z,21.10
2023-04-17T13:11:03.800Z,24.15
2023-04-17T13:13:32.286Z,22.88
2023-04-17T13:16:00.999Z,21.60
2023-04-17T13:53:21.538Z,22.27
2023-04-17T13:55:50.940Z,22.63
2023-04-17T13:58:19.454Z,22.17
2023-04-17T14:00:48.256Z,20.60
2023-04-17T14:03:16.796Z,20.65
2023-04-17T14:05:45.594Z,22.50
2023-04-17T14:08:13.952Z,23.67
2023-04-17T14:10:46.236Z,28.33
2023-04-17T14:13:14.616Z,21.60
2023-04-17T14:15:47.622Z,20.92
2023-04-17T14:18:16.045Z,21.65
2023-04-17T14:20:44.328Z,19.90
2023-04-17T14:23:12.788Z,24.67
2023-04-17T14:25:47.785Z,18.33
2023-04-17T14:28:16.603Z,19.33
2023-04-17T14:30:45.038Z,20.52
2023-04-17T14:33:15.483Z,20.88
2023-04-17T14:35:43.899Z,21.08
2023-04-17T14:38:12.327Z,20.35
2023-04-17T14:40:40.735Z,17.35
2023-04-17T14:43:10.599Z,22.42
2023-04-17T14:45:39.049Z,20.65
2023-04-17T14:48:07.707Z,18.25
2023-04-17T14:50:36.192Z,21.10
2023-04-17T14:53:04.783Z,17.83
2023-04-17T14:55:33.522Z,20.85
2023-04-17T14:58:01.904Z,20.50
2023-04-17T15:00:34.700Z,20.20
2023-04-17T15:03:03.362Z,20.08
2023-04-17T15:05:31.827Z,20.52
2023-04-17T15:08:00.219Z,18.23
2023-04-17T15:10:40.574Z,21.55
2023-04-17T15:13:16.741Z,16.30
2023-04-17T15:15:46.386Z,16.23
2023-04-17T15:18:14.786Z,15.88
2023-04-17T15:20:43.182Z,13.90
2023-04-17T15:23:13.712Z,16.70
2023-04-17T15:25:42.574Z,18.60
2023-04-17T15:28:12.431Z,14.05
2023-04-17T15:30:43.254Z,18.15
2023-04-17T15:33:13.235Z,16.27
2023-04-17T15:35:41.866Z,17.50
2023-04-17T15:38:10.323Z,18.70
2023-04-17T15:40:38.729Z,15.30
2023-04-17T15:43:07.105Z,16.33
2023-04-17T15:45:35.429Z,16.55
2023-04-17T15:48:04.042Z,13.88
2023-04-17T15:50:34.199Z,17.98
2023-04-17T15:53:02.924Z,15.65
2023-04-17T15:55:33.171Z,14.82
2023-04-17T15:58:01.506Z,19.38
2023-04-17T16:00:29.926Z,17.00
2023-04-17T16:02:58.505Z,16.88
2023-04-17T16:05:28.005Z,16.67
2023-04-17T16:07:57.717Z,13.30
2023-04-17T16:10:26.417Z,16.90
2023-04-17T16:12:54.853Z,17.33
2023-04-17T16:15:25.543Z,23.95
2023-04-17T16:17:53.888Z,28.58
2023-04-17T16:20:22.367Z,32.17
2023-04-17T16:22:50.780Z,35.88
2023-04-17T16:25:20.989Z,30.10
2023-04-17T16:27:49.614Z,25.65
2023-04-17T16:30:18.582Z,31.50
2023-04-17T16:32:48.825Z,30.02
2023-04-17T16:35:17.357Z,32.60
2023-04-17T16:37:46.588Z,25.10
2023-04-17T16:40:15.440Z,26.25
2023-04-17T16:42:45.475Z,30.20
2023-04-17T16:45:13.967Z,24.27
2023-04-17T16:47:42.340Z,25.90
2023-04-17T16:50:12.045Z,27.98
2023-04-17T16:52:40.798Z,30.85
2023-04-17T16:55:10.173Z,30.85
2023-04-17T16:57:40.801Z,28.75
2023-04-17T17:00:12.243Z,26.98
2023-04-17T17:02:40.975Z,31.60
2023-04-17T17:05:10.759Z,27.67
2023-04-17T17:07:39.156Z,30.45
2023-04-17T17:10:09.037Z,35.22
2023-04-17T17:12:37.423Z,28.42
2023-04-17T17:15:07.208Z,29.77
2023-04-17T17:17:37.165Z,28.20
2023-04-17T17:20:06.235Z,28.55
2023-04-17T17:22:34.896Z,31.45
2023-04-17T17:25:03.498Z,28.52
2023-04-17T17:27:32.086Z,26.60
2023-04-17T17:30:00.911Z,30.02
2023-04-17T17:32:29.595Z,24.23
2023-04-17T17:34:59.560Z,30.23
2023-04-17T17:37:28.199Z,25.10
2023-04-17T17:39:56.528Z,28.48
2023-04-17T17:42:25.019Z,30.67
2023-04-17T17:44:53.495Z,31.27
2023-04-17T17:47:21.836Z,28.42
2023-04-17T17:49:50.523Z,33.10
2023-04-17T17:52:20.266Z,31.98
2023-04-17T17:54:48.682Z,27.15
2023-04-17T17:57:17.097Z,28.20
2023-04-17T17:59:46.058Z,27.08
2023-04-17T18:02:14.648Z,30.42
2023-04-17T18:04:43.139Z,32.63
2023-04-17T18:07:11.974Z,32.33
2023-04-17T18:09:42.522Z,31.15
2023-04-17T18:12:11.157Z,29.20
2023-04-17T18:14:39.729Z,33.50
2023-04-17T18:17:08.339Z,27.25
2023-04-17T18:19:40.837Z,36.28
2023-04-17T18:22:09.481Z,35.80
2023-04-17T18:24:37.904Z,34.78
2023-04-17T18:27:07.665Z,34.25
2023-04-17T18:29:36.319Z,39.08
2023-04-17T18:32:04.955Z,33.35
2023-04-17T18:34:33.520Z,37.83
2023-04-17T18:37:01.863Z,39.17
2023-04-17T18:39:30.489Z,38.35
2023-04-17T18:41:59.715Z,31.08
2023-04-17T18:44:29.735Z,43.72
2023-04-17T18:46:58.411Z,37.05
2023-04-17T18:49:27.612Z,36.30
2023-04-17T18:51:56.570Z,35.28
2023-04-17T18:54:25.193Z,40.95
2023-04-17T18:56:53.824Z,29.85
2023-04-17T18:59:22.484Z,34.88
2023-04-17T19:01:52.491Z,37.60
2023-04-17T19:04:21.797Z,39.10
2023-04-17T19:06:50.577Z,38.42
2023-04-17T19:09:19.170Z,42.55
2023-04-17T19:11:47.727Z,38.65
2023-04-17T19:14:16.337Z,40.28
2023-04-17T19:16:47.152Z,42.50
2023-04-17T19:19:17.497Z,42.35
2023-04-17T19:21:46.088Z,38.53
2023-04-17T19:24:14.723Z,42.05
2023-04-17T19:26:43.339Z,34.30
2023-04-17T19:29:12.122Z,26.17
2023-04-17T19:31:40.982Z,42.13
2023-04-17T19:34:10.473Z,43.70
2023-04-17T19:36:40.482Z,43.50
2023-04-17T19:39:09.085Z,33.05
2023-04-17T19:41:37.742Z,39.58
2023-04-17T19:44:06.552Z,33.65
2023-04-17T19:46:35.121Z,46.85
2023-04-17T19:49:03.691Z,44.05
2023-04-17T19:51:32.575Z,43.30
2023-04-17T19:54:02.576Z,46.63
2023-04-17T19:56:33.518Z,45.42
2023-04-17T19:59:03.308Z,43.50
2023-04-17T20:01:32.711Z,42.85
2023-04-17T20:04:01.389Z,49.55
2023-04-17T20:06:30.025Z,43.85
2023-04-17T20:08:59.252Z,50.45
2023-04-17T20:11:28.991Z,52.25
2023-04-17T20:13:57.639Z,48.60
2023-04-17T20:16:26.129Z,51.15
2023-04-17T20:18:56.611Z,50.80
2023-04-17T20:21:25.271Z,52.83
2023-04-17T20:23:55.118Z,58.03
2023-04-17T20:26:23.710Z,49.03
2023-04-17T20:28:54.832Z,56.92
2023-04-17T20:31:23.573Z,54.90
2023-04-17T20:33:51.996Z,57.97
2023-04-17T20:36:20.328Z,56.50
2023-04-17T20:38:48.994Z,51.60
2023-04-17T20:41:17.360Z,57.60
2023-04-17T20:43:46.125Z,58.47
2023-04-17T20:46:16.136Z,61.70
2023-04-17T20:48:44.775Z,57.60
2023-04-17T20:51:13.400Z,60.28
2023-04-17T20:53:41.991Z,70.90
2023-04-17T20:56:10.567Z,64.57
2023-04-17T20:58:39.180Z,65.10
2023-04-17T21:01:08.121Z,61.90
2023-04-17T21:03:38.260Z,68.00
2023-04-17T21:06:09.157Z,65.13
2023-04-17T21:08:37.770Z,75.05
2023-04-17T21:11:06.930Z,70.97
2023-04-17T21:13:35.526Z,74.68
2023-04-17T21:16:04.233Z,69.88
2023-04-17T21:18:32.808Z,75.03
2023-04-17T21:21:02.734Z,76.60
2023-04-17T21:23:31.611Z,75.35
2023-04-17T21:26:00.205Z,76.25
2023-04-17T21:28:28.847Z,76.38
2023-04-17T21:30:57.448Z,81.45
2023-04-17T21:33:26.114Z,79.30
2023-04-17T21:35:57.899Z,87.65
2023-04-17T21:38:27.824Z,84.57
2023-04-17T21:40:56.705Z,90.28
2023-04-17T21:43:25.161Z,88.00
2023-04-17T21:45:56.977Z,78.03
2023-04-17T21:48:25.498Z,89.47
2023-04-17T21:50:56.474Z,84.97
2023-04-17T21:53:24.843Z,87.35
2023-04-17T21:55:56.773Z,93.18
2023-04-17T21:58:27.808Z,94.15
2023-04-17T22:00:56.691Z,86.70
2023-04-17T22:03:25.307Z,90.32
2023-04-17T22:05:56.412Z,93.55
2023-04-17T22:08:25.406Z,85.80
2023-04-17T22:10:54.062Z,93.15
2023-04-17T22:13:24.061Z,94.32
2023-04-17T22:15:53.048Z,83.00
2023-04-17T22:18:22.682Z,92.05
2023-04-17T22:20:51.247Z,78.15
2023-04-17T22:23:19.967Z,89.28
2023-04-17T22:25:48.539Z,79.05
2023-04-17T22:28:17.169Z,100.13
2023-04-17T22:30:47.217Z,87.07
2023-04-17T22:33:15.862Z,89.35
2023-04-17T22:35:44.497Z,89.88
2023-04-17T22:38:13.180Z,83.53
2023-04-17T22:40:42.684Z,95.65
2023-04-17T22:43:11.594Z,95.28
2023-04-17T22:45:40.258Z,90.18
2023-04-17T22:48:10.253Z,93.45
2023-04-17T22:50:39.374Z,81.72
2023-04-17T22:53:08.018Z,94.70
2023-04-17T22:55:36.785Z,87.18
2023-04-17T22:58:27.377Z,91.82
2023-04-17T23:00:58.256Z,106.65
2023-04-17T23:03:28.132Z,106.88
2023-04-17T23:05:56.939Z,96.68
2023-04-17T23:08:25.595Z,105.35
2023-04-17T23:10:59.834Z,99.75
2023-04-17T23:13:31.612Z,101.45
2023-04-17T23:16:00.057Z,102.00
2023-04-17T23:18:30.051Z,103.78
2023-04-17T23:20:58.542Z,101.53
2023-04-17T23:23:26.883Z,103.57
2023-04-17T23:25:57.509Z,104.75
2023-04-17T23:28:30.376Z,106.40
2023-04-17T23:30:59.009Z,109.43
2023-04-17T23:33:27.492Z,106.85
2023-04-17T23:35:57.145Z,107.70
2023-04-17T23:38:25.639Z,109.88
2023-04-17T23:40:54.027Z,109.75
2023-04-17T23:43:22.494Z,104.65
2023-04-17T23:45:50.916Z,102.28
2023-04-17T23:48:19.760Z,102.88
2023-04-17T23:50:48.520Z,104.85
2023-04-17T23:53:18.225Z,102.32
2023-04-17T23:55:46.848Z,110.22
2023-04-17T23:58:15.593Z,108.03
